Airfield :
LOGIN :

Register | Disclaimer

   EN    FR    IT 

 










Legend :    VFR   Marginal VFR   IFR   Intensive IFR   Very Intensive IFR
Visi :
Ceiling :
>= 8 km
>= 3000ft
5 to 8 km
1000 to 3000 ft
1500m to 5 km
500 to 1000 ft
800 to 1500m
200 to 500 ft
< 800m
< 200 ft
Symbols :   Thunderstorms  Fog  Heavy snow  Heavy precipitations  Wind > 20 kt
SIGMETs :     Misc.  Thunderstorms  Icing  Turbulence  Mountain Waves  Volcanic Ashes







- Airport Elevation : 202 ft
- IATA code : LGW
- Download approach charts


EGKK - London Gatwick

CURRENT METAR :
  • 200520Z 00000KT 9000 NSC 10/09 Q1020

EXPIRED METARs :
  • 200450Z 09002KT CAVOK 10/09 Q1020
  • 200420Z 00000KT 7000 NSC 10/09 Q1020
  • 200350Z 00000KT 8000 NSC 10/09 Q1020
  • 200320Z 00000KT CAVOK 09/08 Q1020
  • 200250Z 00000KT CAVOK 09/08 Q1020

TAF TAF EGKK
Valid from the 20 at 06:00 until the 21 at 12:00 UTC


200445Z 2006/2112 VRB03KT 9999 FEW040
TEMPO 2006/2009 8000
PROB30
TEMPO 2006/2008 4000 BR
BECMG 2009/2012 22010KT
No reported NOTAMs for that airfield.



MET'MAP, your aeronautical weather chart ! - Copyright ORBIFLY December 2007 - Disclaimer

ORBIFLY MET'MAP TEAM :

Programming & Development : Alexandra Zaïnal
Concept & Development : Baudouin d'Aumeries
Co-Development & Prog : Marc-Olivier Méhu
Technical & hardware support : Manuel Goepfert

Contact : metmap@orbifly.com




SOURCES & CREDITS :

   NOAA